createdAt,value
2022-12-03T00:00:12.848Z,32.30
2022-12-03T00:03:15.056Z,33.30
2022-12-03T00:06:17.648Z,35.55
2022-12-03T00:09:19.233Z,26.98
2022-12-03T00:12:20.753Z,31.77
2022-12-03T00:15:22.289Z,34.38
2022-12-03T00:18:23.840Z,34.67
2022-12-03T00:21:25.455Z,34.42
2022-12-03T00:24:26.992Z,32.65
2022-12-03T00:27:31.535Z,35.45
2022-12-03T00:30:33.204Z,38.53
2022-12-03T00:33:34.788Z,36.40
2022-12-03T00:36:36.392Z,39.00
2022-12-03T00:39:37.966Z,37.45
2022-12-03T00:42:39.528Z,36.22
2022-12-03T00:45:41.135Z,44.00
2022-12-03T00:48:42.669Z,45.83
2022-12-03T00:51:44.192Z,38.28
2022-12-03T00:54:45.763Z,40.22
2022-12-03T00:57:47.353Z,36.33
2022-12-03T01:00:49.003Z,42.08
2022-12-03T01:03:50.593Z,43.08
2022-12-03T01:06:52.142Z,35.78
2022-12-03T01:09:53.724Z,36.38
2022-12-03T01:12:55.312Z,36.78
2022-12-03T01:15:56.935Z,34.65
2022-12-03T01:18:58.724Z,35.08
2022-12-03T01:22:00.272Z,41.95
2022-12-03T01:25:02.185Z,39.60
2022-12-03T01:28:03.908Z,43.33
2022-12-03T01:31:24.101Z,40.83
2022-12-03T01:34:25.776Z,39.72
2022-12-03T01:37:27.682Z,39.08
2022-12-03T01:40:29.260Z,45.30
2022-12-03T01:43:31.250Z,40.33
2022-12-03T01:46:39.818Z,37.95
2022-12-03T01:49:48.787Z,41.97
2022-12-03T01:52:50.397Z,40.03
2022-12-03T01:55:52.065Z,45.97
2022-12-03T01:58:53.677Z,40.72
2022-12-03T02:01:55.339Z,43.58
2022-12-03T02:04:57.909Z,37.97
2022-12-03T02:08:00.138Z,36.20
2022-12-03T02:11:05.931Z,42.13
2022-12-03T02:14:19.684Z,35.72
2022-12-03T02:17:21.518Z,37.03
2022-12-03T02:20:23.147Z,35.60
2022-12-03T02:23:40.071Z,35.05
2022-12-03T02:26:41.635Z,32.08
2022-12-03T02:29:43.343Z,36.63
2022-12-03T02:32:45.040Z,37.40
2022-12-03T02:35:46.624Z,36.15
2022-12-03T02:38:49.665Z,35.92
2022-12-03T02:42:14.105Z,34.40
2022-12-03T02:45:20.133Z,32.75
2022-12-03T02:48:35.618Z,31.75
2022-12-03T02:51:37.207Z,37.97
2022-12-03T02:54:39.030Z,35.72
2022-12-03T02:57:41.299Z,36.83
2022-12-03T03:00:44.051Z,39.30
2022-12-03T03:03:47.283Z,40.88
2022-12-03T03:06:48.851Z,35.92
2022-12-03T03:09:50.428Z,33.50
2022-12-03T03:12:55.026Z,32.58
2022-12-03T03:15:56.773Z,37.97
2022-12-03T03:18:58.421Z,36.25
2022-12-03T03:22:00.149Z,34.35
2022-12-03T03:25:02.390Z,33.70
2022-12-03T03:28:05.747Z,34.97
2022-12-03T03:31:09.514Z,41.25
2022-12-03T03:34:11.561Z,34.60
2022-12-03T03:37:13.176Z,38.85
2022-12-03T03:40:14.776Z,39.88
2022-12-03T03:43:16.778Z,40.05
2022-12-03T03:46:19.665Z,36.47
2022-12-03T03:49:22.170Z,37.88
2022-12-03T03:52:24.415Z,38.63
2022-12-03T03:55:26.142Z,36.67
2022-12-03T03:58:27.713Z,36.38
2022-12-03T04:01:29.875Z,39.45
2022-12-03T04:04:36.661Z,41.50
2022-12-03T04:07:38.360Z,38.57
2022-12-03T04:10:58.508Z,42.30
2022-12-03T04:14:00.089Z,39.97
2022-12-03T04:17:01.714Z,41.35
2022-12-03T04:20:03.737Z,45.90
2022-12-03T04:23:06.208Z,43.45
2022-12-03T04:26:26.534Z,38.88
2022-12-03T04:29:28.062Z,44.00
2022-12-03T04:32:48.413Z,40.10
2022-12-03T04:35:50.013Z,43.20
2022-12-03T04:38:51.641Z,40.47
2022-12-03T04:41:53.209Z,43.45
2022-12-03T04:44:55.001Z,42.90
2022-12-03T04:47:56.715Z,44.47
2022-12-03T04:50:58.340Z,44.25
2022-12-03T04:53:59.906Z,40.63
2022-12-03T04:57:03.783Z,45.60
2022-12-03T05:00:06.034Z,42.62
2022-12-03T05:03:07.666Z,44.33
2022-12-03T05:06:09.279Z,45.65
2022-12-03T05:09:11.666Z,42.80
2022-12-03T05:12:13.256Z,44.35
2022-12-03T05:15:14.831Z,43.15
2022-12-03T05:18:16.398Z,48.97
2022-12-03T05:21:18.040Z,48.20
2022-12-03T05:24:19.582Z,44.80
2022-12-03T05:27:23.979Z,41.42
2022-12-03T05:30:27.084Z,41.08
2022-12-03T05:33:28.659Z,40.67
2022-12-03T05:36:30.225Z,38.63
2022-12-03T05:39:31.881Z,39.38
2022-12-03T05:42:51.851Z,43.95
2022-12-03T05:45:53.543Z,43.28
2022-12-03T05:48:55.294Z,41.70
2022-12-03T05:51:58.669Z,43.63
2022-12-03T05:55:00.572Z,46.78
2022-12-03T05:58:02.146Z,43.65
2022-12-03T06:01:03.692Z,45.15
2022-12-03T06:04:05.442Z,48.25
2022-12-03T06:07:11.048Z,42.67
2022-12-03T06:10:21.868Z,42.17
2022-12-03T06:13:23.441Z,43.30
2022-12-03T06:16:25.025Z,41.13
2022-12-03T06:19:26.605Z,42.70
2022-12-03T06:22:28.198Z,46.33
2022-12-03T06:25:29.782Z,42.80
2022-12-03T06:28:31.326Z,46.30
2022-12-03T06:31:33.012Z,48.40
2022-12-03T06:34:35.276Z,42.30
2022-12-03T06:37:36.854Z,38.47
2022-12-03T06:40:38.415Z,41.28
2022-12-03T06:43:39.965Z,42.62
2022-12-03T06:46:41.845Z,42.92
2022-12-03T06:49:43.435Z,50.60
2022-12-03T06:52:45.007Z,40.42
2022-12-03T06:55:46.562Z,40.70
2022-12-03T06:58:48.202Z,42.17
2022-12-03T07:01:49.827Z,38.78
2022-12-03T07:04:51.574Z,42.35
2022-12-03T07:07:55.385Z,38.40
2022-12-03T07:10:57.000Z,37.88
2022-12-03T07:14:05.573Z,36.50
2022-12-03T07:17:07.478Z,40.45
2022-12-03T07:20:09.863Z,43.00
2022-12-03T07:23:11.441Z,37.95
2022-12-03T07:26:13.072Z,44.13
2022-12-03T07:29:14.652Z,43.58
2022-12-03T07:32:16.206Z,37.75
2022-12-03T07:35:17.753Z,43.58
2022-12-03T07:38:19.391Z,44.75
2022-12-03T07:41:20.985Z,42.13
2022-12-03T07:44:22.543Z,41.70
2022-12-03T07:47:24.104Z,38.22
2022-12-03T07:50:28.316Z,37.25
2022-12-03T07:53:30.006Z,42.30
2022-12-03T07:56:32.088Z,46.08
2022-12-03T07:59:33.636Z,40.25
2022-12-03T08:02:36.270Z,38.67
2022-12-03T08:05:37.840Z,41.15
2022-12-03T08:08:39.798Z,39.22
2022-12-03T08:11:42.391Z,40.55
2022-12-03T08:14:44.639Z,35.67
2022-12-03T08:17:51.538Z,37.03
2022-12-03T08:20:53.155Z,35.70
2022-12-03T08:23:56.186Z,39.30
2022-12-03T08:26:57.745Z,33.22
2022-12-03T08:30:03.533Z,50.67
2022-12-03T08:33:23.237Z,37.58
2022-12-03T08:36:26.431Z,41.67
2022-12-03T08:39:39.791Z,36.10
2022-12-03T08:42:41.700Z,35.90
2022-12-03T08:45:43.713Z,33.83
2022-12-03T08:48:49.029Z,33.45
2022-12-03T08:51:57.099Z,41.72
2022-12-03T08:55:00.120Z,37.15
2022-12-03T08:58:30.827Z,40.30
2022-12-03T09:01:43.230Z,36.55
2022-12-03T09:04:46.752Z,34.08
2022-12-03T09:07:48.924Z,38.13
2022-12-03T09:10:50.864Z,34.13
2022-12-03T09:13:52.448Z,36.90
2022-12-03T09:16:55.931Z,26.15
2022-12-03T09:19:57.810Z,34.42
2022-12-03T09:22:59.378Z,33.40
2022-12-03T09:26:00.940Z,37.80
2022-12-03T09:29:05.255Z,34.15
2022-12-03T09:32:12.491Z,34.03
2022-12-03T09:35:17.091Z,36.05
2022-12-03T09:38:18.689Z,46.33
2022-12-03T09:41:20.693Z,47.15
2022-12-03T09:44:22.396Z,46.17
2022-12-03T09:47:25.174Z,49.80
2022-12-03T09:50:27.454Z,41.45
2022-12-03T09:53:29.287Z,42.75
2022-12-03T09:56:31.826Z,41.80
2022-12-03T09:59:35.110Z,41.50
2022-12-03T10:02:36.716Z,40.63
2022-12-03T10:05:40.569Z,41.22
2022-12-03T10:08:48.687Z,37.75
2022-12-03T10:11:50.398Z,40.60
2022-12-03T10:14:53.964Z,42.03
2022-12-03T10:17:57.338Z,42.17
2022-12-03T10:20:59.159Z,41.30
2022-12-03T10:24:25.964Z,40.75
2022-12-03T10:27:30.772Z,38.80
2022-12-03T10:30:32.896Z,45.10
2022-12-03T10:33:37.381Z,46.53
2022-12-03T10:36:39.012Z,42.05
2022-12-03T10:40:00.406Z,37.08
2022-12-03T10:43:23.483Z,43.50
2022-12-03T10:46:25.254Z,39.05
2022-12-03T10:49:26.950Z,36.55
2022-12-03T10:52:28.711Z,41.45
2022-12-03T10:55:37.730Z,37.58
2022-12-03T10:58:40.381Z,41.63
2022-12-03T11:01:42.027Z,39.42
2022-12-03T11:04:43.683Z,38.53
2022-12-03T11:07:45.594Z,32.78
2022-12-03T11:10:59.521Z,35.88
2022-12-03T11:14:03.409Z,37.70
2022-12-03T11:17:07.423Z,35.20
2022-12-03T11:20:25.601Z,45.25
2022-12-03T11:23:45.599Z,37.45
2022-12-03T11:26:50.090Z,39.85
2022-12-03T11:29:59.091Z,45.00
2022-12-03T11:33:01.709Z,41.83
2022-12-03T11:36:03.184Z,37.45
2022-12-03T11:39:04.796Z,39.53
2022-12-03T11:42:27.692Z,36.30
2022-12-03T11:45:36.796Z,39.17
2022-12-03T11:48:44.941Z,34.90
2022-12-03T11:51:47.032Z,36.83
2022-12-03T11:54:53.349Z,41.20
2022-12-03T11:58:00.090Z,36.42
2022-12-03T12:01:04.214Z,34.33
2022-12-03T12:04:07.708Z,35.78
2022-12-03T12:07:09.334Z,39.90
2022-12-03T12:10:11.637Z,37.72
2022-12-03T12:13:31.276Z,38.60
2022-12-03T12:16:41.366Z,41.28
2022-12-03T12:19:43.834Z,33.45
2022-12-03T12:22:45.389Z,36.60
2022-12-03T12:25:52.428Z,33.45
2022-12-03T12:28:55.584Z,38.03
2022-12-03T12:32:11.037Z,35.95
2022-12-03T12:35:24.567Z,35.80
2022-12-03T12:38:28.242Z,33.30
2022-12-03T12:41:29.847Z,34.92
2022-12-03T12:44:31.412Z,31.30
2022-12-03T12:47:37.114Z,36.28
2022-12-03T12:50:39.961Z,30.27
2022-12-03T12:53:44.875Z,30.40
2022-12-03T12:56:50.063Z,36.45
2022-12-03T12:59:53.754Z,38.47
2022-12-03T13:03:00.090Z,52.22
2022-12-03T13:06:02.612Z,38.15
2022-12-03T13:09:04.345Z,38.78
2022-12-03T13:12:16.251Z,33.75
2022-12-03T13:15:42.481Z,31.40
2022-12-03T13:18:54.356Z,31.17
2022-12-03T13:22:00.087Z,35.05
2022-12-03T13:25:32.587Z,31.87
2022-12-03T13:28:41.551Z,40.78
2022-12-03T13:31:52.379Z,35.47
2022-12-03T13:35:00.145Z,39.85
2022-12-03T13:38:13.538Z,35.65
2022-12-03T13:41:37.558Z,36.90
2022-12-03T13:44:47.599Z,34.45
2022-12-03T13:47:57.972Z,40.00
2022-12-03T13:51:13.238Z,35.88
2022-12-03T13:54:20.280Z,38.13
2022-12-03T13:57:22.234Z,42.53
2022-12-03T14:00:24.325Z,35.42
2022-12-03T14:03:25.918Z,35.38
2022-12-03T14:06:27.507Z,32.42
2022-12-03T14:09:29.105Z,39.33
2022-12-03T14:12:33.909Z,34.97
2022-12-03T14:15:35.592Z,37.05
2022-12-03T14:18:37.192Z,38.03
2022-12-03T14:21:38.977Z,41.75
2022-12-03T14:24:40.601Z,44.13
2022-12-03T14:27:42.263Z,42.95
2022-12-03T14:30:43.822Z,42.70
2022-12-03T14:33:45.391Z,40.88
2022-12-03T14:36:46.942Z,39.92
2022-12-03T14:39:48.638Z,38.67
2022-12-03T14:42:50.409Z,44.30
2022-12-03T14:45:52.032Z,48.30
2022-12-03T14:48:53.676Z,41.50
2022-12-03T14:51:55.234Z,38.30
2022-12-03T14:54:56.803Z,38.70
2022-12-03T14:57:58.347Z,43.50
2022-12-03T15:01:00.228Z,51.70
2022-12-03T15:04:01.890Z,50.30
2022-12-03T15:07:03.864Z,46.47
2022-12-03T15:10:07.500Z,54.33
2022-12-03T15:13:09.026Z,49.28
2022-12-03T15:16:10.705Z,44.38
2022-12-03T15:19:12.381Z,57.72
2022-12-03T15:22:14.242Z,52.83
2022-12-03T15:25:16.015Z,55.28
2022-12-03T15:28:17.665Z,53.67
2022-12-03T15:31:19.325Z,55.95
2022-12-03T15:34:23.096Z,48.97
2022-12-03T15:37:27.891Z,50.80
2022-12-03T15:40:29.790Z,54.05
2022-12-03T15:43:31.367Z,52.53
2022-12-03T15:46:33.070Z,44.28
2022-12-03T15:49:34.663Z,43.10
2022-12-03T15:52:36.418Z,43.83
2022-12-03T15:55:38.046Z,43.20
2022-12-03T15:58:40.740Z,44.55
2022-12-03T16:01:42.382Z,44.13
2022-12-03T16:04:44.838Z,49.78
2022-12-03T16:07:46.453Z,56.00
2022-12-03T16:10:48.231Z,45.55
2022-12-03T16:13:49.836Z,42.78
2022-12-03T16:16:52.299Z,47.47
2022-12-03T16:19:55.094Z,44.40
2022-12-03T16:22:56.911Z,58.15
2022-12-03T16:25:58.753Z,48.65
2022-12-03T16:29:00.789Z,49.67
2022-12-03T16:32:02.548Z,46.80
2022-12-03T16:35:04.713Z,49.33
2022-12-03T16:38:06.271Z,46.75
2022-12-03T16:41:09.386Z,50.12
2022-12-03T16:44:30.429Z,50.12
2022-12-03T16:47:34.360Z,54.17
2022-12-03T16:50:37.767Z,52.65
2022-12-03T16:53:39.457Z,56.47
2022-12-03T16:56:41.025Z,47.90
2022-12-03T16:59:43.048Z,53.00
2022-12-03T17:02:45.025Z,53.17
2022-12-03T17:05:47.525Z,58.42
2022-12-03T17:08:50.028Z,56.10
2022-12-03T17:11:52.197Z,50.35
2022-12-03T17:14:54.184Z,46.90
2022-12-03T17:17:56.165Z,44.88
2022-12-03T17:20:57.834Z,45.90
2022-12-03T17:23:59.611Z,58.22
2022-12-03T17:27:01.607Z,66.07
2022-12-03T17:30:05.927Z,64.85
2022-12-03T17:33:07.548Z,62.03
2022-12-03T17:36:10.912Z,73.82
2022-12-03T17:39:12.620Z,61.80
2022-12-03T17:42:14.260Z,74.93
2022-12-03T17:45:15.908Z,71.53
2022-12-03T17:48:17.732Z,94.65
2022-12-03T17:51:21.169Z,61.25
2022-12-03T17:54:22.773Z,64.55
2022-12-03T17:57:24.630Z,54.95
2022-12-03T18:00:27.633Z,61.15
2022-12-03T18:03:29.730Z,52.10
2022-12-03T18:06:31.797Z,53.55
2022-12-03T18:09:33.341Z,50.47
2022-12-03T18:12:35.622Z,55.85
2022-12-03T18:15:37.269Z,55.03
2022-12-03T18:18:38.858Z,47.83
2022-12-03T18:21:40.839Z,51.10
2022-12-03T18:24:45.049Z,50.00
2022-12-03T18:27:48.267Z,55.47
2022-12-03T18:30:52.790Z,50.08
2022-12-03T18:33:55.123Z,52.17
2022-12-03T18:36:57.591Z,48.42
2022-12-03T18:40:00.940Z,51.92
2022-12-03T18:43:03.073Z,48.58
2022-12-03T18:46:09.638Z,55.85
2022-12-03T18:49:17.798Z,48.28
2022-12-03T18:52:22.557Z,45.72
2022-12-03T18:55:35.679Z,50.45
2022-12-03T18:58:37.820Z,46.95
2022-12-03T19:01:39.690Z,50.72
2022-12-03T19:04:42.255Z,48.08
2022-12-03T19:07:44.343Z,48.58
2022-12-03T19:10:56.073Z,46.72
2022-12-03T19:13:59.525Z,40.95
2022-12-03T19:17:02.809Z,44.10
2022-12-03T19:20:05.358Z,45.17
2022-12-03T19:23:06.937Z,45.75
2022-12-03T19:26:10.515Z,51.53
2022-12-03T19:29:12.309Z,44.53
2022-12-03T19:32:14.276Z,47.13
2022-12-03T19:35:15.947Z,46.05
2022-12-03T19:38:19.040Z,46.63
2022-12-03T19:41:21.161Z,47.00
2022-12-03T19:44:23.310Z,43.78
2022-12-03T19:47:25.949Z,44.42
2022-12-03T19:50:28.379Z,41.35
2022-12-03T19:53:31.279Z,48.25
2022-12-03T19:56:33.951Z,46.58
2022-12-03T19:59:35.958Z,52.33
2022-12-03T20:02:38.636Z,56.55
2022-12-03T20:05:41.223Z,45.53
2022-12-03T20:08:43.951Z,45.12
2022-12-03T20:11:46.760Z,46.00
2022-12-03T20:14:50.296Z,50.85
2022-12-03T20:17:52.358Z,52.65
2022-12-03T20:21:00.899Z,54.03
2022-12-03T20:24:03.933Z,55.28
2022-12-03T20:27:05.925Z,50.33
2022-12-03T20:30:09.098Z,52.28
2022-12-03T20:33:12.335Z,52.05
2022-12-03T20:36:17.164Z,51.40
2022-12-03T20:39:18.797Z,53.65
2022-12-03T20:42:20.375Z,56.60
2022-12-03T20:45:22.373Z,55.65
2022-12-03T20:48:24.387Z,48.65
2022-12-03T20:51:31.346Z,49.72
2022-12-03T20:54:36.570Z,56.85
2022-12-03T20:57:38.394Z,54.50
2022-12-03T21:00:40.370Z,49.42
2022-12-03T21:03:42.399Z,50.70
2022-12-03T21:06:44.658Z,51.42
2022-12-03T21:09:46.375Z,53.85
2022-12-03T21:12:47.914Z,49.22
2022-12-03T21:15:50.284Z,52.35
2022-12-03T21:18:53.486Z,53.95
2022-12-03T21:21:55.333Z,51.97
2022-12-03T21:24:57.279Z,58.38
2022-12-03T21:27:59.198Z,52.80
2022-12-03T21:31:02.530Z,65.28
2022-12-03T21:34:05.469Z,58.78
2022-12-03T21:37:07.479Z,52.00
2022-12-03T21:40:09.478Z,54.72
2022-12-03T21:43:11.413Z,52.50
2022-12-03T21:47:12.278Z,56.45
2022-12-03T21:49:38.537Z,56.95
2022-12-03T21:52:40.525Z,64.00
2022-12-03T21:55:42.425Z,56.83
2022-12-03T21:58:44.849Z,60.63
2022-12-03T22:01:47.525Z,57.20
2022-12-03T22:04:50.371Z,68.28
2022-12-03T22:07:51.962Z,59.75
2022-12-03T22:10:53.549Z,60.78
2022-12-03T22:13:57.081Z,54.92
2022-12-03T22:16:58.721Z,56.30
2022-12-03T22:20:00.279Z,49.92
2022-12-03T22:23:02.029Z,53.00
2022-12-03T22:26:07.402Z,53.33
2022-12-03T22:29:10.933Z,53.05
2022-12-03T22:32:12.499Z,49.55
2022-12-03T22:35:14.087Z,51.05
2022-12-03T22:38:15.654Z,52.08
2022-12-03T22:41:18.460Z,58.47
2022-12-03T22:44:19.980Z,55.92
2022-12-03T22:47:21.554Z,51.05
2022-12-03T22:50:23.107Z,57.50
2022-12-03T22:53:24.692Z,56.75
2022-12-03T22:56:27.907Z,58.22
2022-12-03T22:59:29.523Z,59.50
2022-12-03T23:02:31.099Z,51.80
2022-12-03T23:05:38.587Z,54.55
2022-12-03T23:08:40.250Z,54.60
2022-12-03T23:11:43.903Z,58.35
2022-12-03T23:14:45.472Z,60.72
2022-12-03T23:17:47.022Z,55.50
2022-12-03T23:20:52.932Z,57.00
2022-12-03T23:23:54.803Z,51.28
2022-12-03T23:26:56.671Z,56.00
2022-12-03T23:29:58.221Z,56.85
2022-12-03T23:32:59.795Z,54.58
2022-12-03T23:36:05.590Z,53.55
2022-12-03T23:39:07.201Z,55.30
2022-12-03T23:42:08.818Z,51.30
2022-12-03T23:45:10.825Z,48.80
2022-12-03T23:48:12.955Z,49.05
2022-12-03T23:51:18.654Z,52.20
2022-12-03T23:54:20.283Z,50.30
2022-12-03T23:57:22.129Z,55.92
